createdAt,value
2019-04-28T00:00:32.217Z,16.70
2019-04-28T00:03:00.821Z,12.82
2019-04-28T00:05:30.922Z,16.65
2019-04-28T00:08:00.856Z,21.37
2019-04-28T00:10:28.987Z,16.32
2019-04-28T00:12:57.189Z,15.48
2019-04-28T00:15:25.408Z,14.28
2019-04-28T00:17:53.628Z,23.22
2019-04-28T00:20:26.193Z,18.98
2019-04-28T00:22:58.964Z,17.87
2019-04-28T00:25:28.817Z,18.82
2019-04-28T00:27:57.026Z,16.40
2019-04-28T00:30:25.223Z,20.17
2019-04-28T00:32:53.440Z,19.50
2019-04-28T00:35:23.191Z,19.60
2019-04-28T00:37:51.730Z,16.62
2019-04-28T00:40:21.667Z,21.90
2019-04-28T00:42:51.210Z,20.72
2019-04-28T00:45:21.385Z,19.80
2019-04-28T00:47:51.042Z,18.32
2019-04-28T00:50:19.344Z,14.00
2019-04-28T00:52:47.555Z,15.58
2019-04-28T00:55:15.776Z,11.83
2019-04-28T00:57:43.992Z,17.62
2019-04-28T01:00:12.672Z,18.23
2019-04-28T01:02:41.762Z,24.67
2019-04-28T01:05:11.335Z,17.87
2019-04-28T01:07:41.376Z,20.93
2019-04-28T01:10:11.373Z,22.85
2019-04-28T01:12:41.134Z,16.10
2019-04-28T01:15:11.272Z,19.13
2019-04-28T01:17:53.372Z,15.83
2019-04-28T01:20:23.256Z,15.78
2019-04-28T01:22:51.460Z,10.20
2019-04-28T01:25:20.308Z,12.53
2019-04-28T01:27:53.414Z,13.53
2019-04-28T01:30:29.957Z,18.80
2019-04-28T01:33:09.635Z,23.10
2019-04-28T01:35:39.190Z,24.20
2019-04-28T01:38:07.926Z,20.85
2019-04-28T01:40:36.145Z,19.52
2019-04-28T01:43:04.363Z,20.25
2019-04-28T01:45:32.576Z,25.90
2019-04-28T01:48:02.303Z,16.50
2019-04-28T01:50:30.704Z,21.55
2019-04-28T01:52:59.755Z,20.90
2019-04-28T01:55:29.595Z,25.62
2019-04-28T01:57:59.573Z,29.07
2019-04-28T02:00:29.578Z,23.80
2019-04-28T02:02:57.960Z,18.70
2019-04-28T02:05:26.163Z,22.42
2019-04-28T02:07:54.372Z,21.23
2019-04-28T02:10:22.582Z,20.92
2019-04-28T02:12:50.789Z,22.62
2019-04-28T02:15:20.158Z,26.42
2019-04-28T02:17:50.036Z,23.42
2019-04-28T02:20:20.248Z,18.02
2019-04-28T02:22:53.112Z,22.05
2019-04-28T02:25:21.468Z,22.95
2019-04-28T02:27:50.000Z,28.70
2019-04-28T02:30:20.894Z,24.47
2019-04-28T02:32:48.331Z,30.57
2019-04-28T02:35:16.535Z,26.27
2019-04-28T02:37:44.768Z,21.17
2019-04-28T02:40:12.956Z,26.37
2019-04-28T02:42:41.251Z,20.77
2019-04-28T02:45:11.568Z,20.72
2019-04-28T02:47:42.049Z,30.75
2019-04-28T02:50:14.170Z,23.95
2019-04-28T02:52:55.910Z,24.75
2019-04-28T02:55:24.191Z,22.37
2019-04-28T02:57:52.418Z,22.35
2019-04-28T03:00:21.637Z,25.27
2019-04-28T03:02:51.331Z,30.30
2019-04-28T03:05:21.646Z,22.15
2019-04-28T03:07:51.574Z,28.57
2019-04-28T03:10:21.417Z,25.15
2019-04-28T03:12:51.603Z,29.60
2019-04-28T03:15:20.531Z,23.60
2019-04-28T03:17:52.562Z,34.53
2019-04-28T03:20:21.088Z,27.00
2019-04-28T03:22:51.059Z,25.37
2019-04-28T03:25:40.744Z,27.13
2019-04-28T03:28:12.876Z,23.70
2019-04-28T03:30:53.315Z,18.15
2019-04-28T03:33:25.113Z,21.75
2019-04-28T03:35:53.586Z,25.23
2019-04-28T03:38:21.355Z,28.32
2019-04-28T03:40:51.280Z,26.10
2019-04-28T03:43:21.178Z,21.23
2019-04-28T03:45:54.010Z,26.35
2019-04-28T03:48:22.213Z,27.37
2019-04-28T03:50:51.393Z,22.27
2019-04-28T03:53:20.748Z,33.65
2019-04-28T03:55:51.380Z,27.17
2019-04-28T03:58:23.709Z,28.60
2019-04-28T04:00:50.719Z,35.33
2019-04-28T04:03:20.943Z,30.92
2019-04-28T04:05:50.922Z,41.83
2019-04-28T04:08:20.946Z,31.77
2019-04-28T04:11:00.303Z,25.70
2019-04-28T04:13:33.171Z,15.60
2019-04-28T04:16:05.845Z,28.25
2019-04-28T04:18:40.638Z,22.85
2019-04-28T04:21:10.872Z,21.85
2019-04-28T04:23:40.915Z,26.97
2019-04-28T04:26:11.440Z,35.80
2019-04-28T04:28:38.358Z,14.45
2019-04-28T04:31:06.551Z,24.02
2019-04-28T04:33:34.766Z,24.90
2019-04-28T04:36:02.976Z,20.23
2019-04-28T04:38:31.535Z,24.52
2019-04-28T04:41:01.578Z,23.00
2019-04-28T04:43:31.026Z,21.68
2019-04-28T04:46:14.180Z,19.25
2019-04-28T04:48:44.029Z,18.57
2019-04-28T04:51:12.232Z,14.35
2019-04-28T04:53:40.826Z,18.87
2019-04-28T04:56:10.474Z,15.35
2019-04-28T04:58:40.618Z,17.92
2019-04-28T05:01:10.691Z,18.98
2019-04-28T05:03:40.576Z,19.55
2019-04-28T05:06:26.928Z,14.70
2019-04-28T05:08:55.128Z,13.98
2019-04-28T05:11:23.336Z,12.95
2019-04-28T05:13:51.559Z,16.80
2019-04-28T05:16:19.840Z,14.83
2019-04-28T05:18:49.887Z,25.37
2019-04-28T05:21:19.212Z,14.53
2019-04-28T05:23:55.788Z,8.68
2019-04-28T05:26:25.666Z,17.45
2019-04-28T05:28:53.878Z,18.98
2019-04-28T05:31:24.352Z,22.37
2019-04-28T05:33:52.025Z,19.95
2019-04-28T05:36:20.444Z,11.12
2019-04-28T05:38:49.662Z,14.07
2019-04-28T05:41:19.624Z,14.68
2019-04-28T05:43:47.932Z,17.73
2019-04-28T05:46:16.116Z,10.60
2019-04-28T05:48:54.871Z,14.40
2019-04-28T05:51:24.712Z,13.00
2019-04-28T05:54:12.784Z,14.63
2019-04-28T05:57:02.467Z,13.40
2019-04-28T05:59:47.571Z,15.13
2019-04-28T06:02:21.785Z,15.40
2019-04-28T06:04:49.988Z,15.38
2019-04-28T06:07:20.238Z,21.55
2019-04-28T06:09:50.276Z,15.90
2019-04-28T06:12:20.158Z,13.25
2019-04-28T06:14:50.225Z,12.98
2019-04-28T06:17:20.441Z,11.68
2019-04-28T06:19:50.268Z,14.18
2019-04-28T06:22:18.489Z,13.50
2019-04-28T06:24:46.691Z,11.63
2019-04-28T06:27:14.908Z,11.73
2019-04-28T06:29:43.107Z,17.70
2019-04-28T06:32:11.307Z,15.98
2019-04-28T06:34:39.520Z,14.65
2019-04-28T06:37:07.720Z,15.45
2019-04-28T06:39:35.934Z,13.68
2019-04-28T06:42:04.144Z,15.55
2019-04-28T06:44:32.353Z,11.53
2019-04-28T06:47:00.552Z,14.23
2019-04-28T06:49:28.785Z,17.17
2019-04-28T06:51:56.996Z,19.05
2019-04-28T06:54:25.201Z,11.60
2019-04-28T06:56:53.414Z,11.88
2019-04-28T06:59:21.621Z,19.35
2019-04-28T07:01:49.828Z,11.43
2019-04-28T07:04:18.068Z,14.03
2019-04-28T07:06:46.275Z,13.00
2019-04-28T07:09:14.537Z,9.75
2019-04-28T07:11:42.772Z,11.88
2019-04-28T07:14:10.982Z,15.08
2019-04-28T07:16:39.194Z,17.00
2019-04-28T07:19:07.392Z,14.38
2019-04-28T07:21:37.250Z,14.30
2019-04-28T07:24:05.451Z,17.98
2019-04-28T07:26:33.660Z,15.53
2019-04-28T07:29:01.884Z,11.68
2019-04-28T07:31:30.100Z,18.23
2019-04-28T07:33:58.292Z,9.55
2019-04-28T07:36:26.503Z,12.07
2019-04-28T07:38:54.781Z,10.68
2019-04-28T07:41:22.992Z,12.35
2019-04-28T07:43:51.215Z,15.43
2019-04-28T07:46:19.412Z,15.32
2019-04-28T07:48:47.620Z,16.25
2019-04-28T07:51:15.831Z,12.95
2019-04-28T07:53:45.712Z,21.10
2019-04-28T07:56:13.920Z,15.85
2019-04-28T07:58:42.134Z,13.95
2019-04-28T08:01:12.463Z,19.98
2019-04-28T08:03:49.419Z,19.48
2019-04-28T08:06:10.649Z,11.73
2019-04-28T08:08:38.876Z,19.90
2019-04-28T08:11:07.072Z,19.70
2019-04-28T08:13:35.291Z,18.07
2019-04-28T08:16:03.526Z,10.40
2019-04-28T08:18:31.797Z,15.53
2019-04-28T08:21:00.003Z,15.38
2019-04-28T08:23:28.214Z,12.90
2019-04-28T08:25:56.421Z,15.13
2019-04-28T08:28:24.625Z,14.50
2019-04-28T08:30:52.838Z,20.20
2019-04-28T08:33:25.412Z,12.65
2019-04-28T08:35:53.694Z,13.20
2019-04-28T08:38:21.888Z,20.00
2019-04-28T08:40:50.116Z,10.13
2019-04-28T08:43:18.368Z,12.63
2019-04-28T08:45:46.568Z,14.70
2019-04-28T08:48:14.800Z,14.20
2019-04-28T08:50:43.004Z,17.17
2019-04-28T08:53:13.868Z,15.48
2019-04-28T08:55:41.156Z,14.85
2019-04-28T08:58:09.371Z,15.28
2019-04-28T09:00:37.579Z,13.35
2019-04-28T09:03:05.792Z,17.50
2019-04-28T09:05:34.016Z,17.27
2019-04-28T09:08:02.210Z,12.28
2019-04-28T09:10:32.069Z,17.92
2019-04-28T09:13:00.296Z,12.15
2019-04-28T09:15:28.512Z,13.50
2019-04-28T09:17:56.713Z,10.38
2019-04-28T09:20:24.958Z,11.30
2019-04-28T09:22:53.224Z,18.98
2019-04-28T09:25:21.477Z,15.70
2019-04-28T09:27:49.749Z,14.18
2019-04-28T09:30:18.005Z,15.00
2019-04-28T09:32:46.227Z,12.95
2019-04-28T09:35:14.434Z,12.80
2019-04-28T09:37:42.644Z,18.70
2019-04-28T09:40:15.998Z,11.00
2019-04-28T09:42:51.703Z,21.20
2019-04-28T09:45:24.570Z,12.68
2019-04-28T09:47:52.783Z,11.70
2019-04-28T09:50:21.047Z,19.85
2019-04-28T09:52:49.228Z,18.17
2019-04-28T09:55:19.101Z,12.40
2019-04-28T10:00:35.074Z,15.23
2019-04-28T10:03:03.288Z,16.32
2019-04-28T10:05:33.326Z,13.18
2019-04-28T10:08:01.636Z,17.73
2019-04-28T10:10:29.880Z,15.68
2019-04-28T10:12:58.121Z,16.05
2019-04-28T10:15:26.412Z,13.65
2019-04-28T10:17:54.631Z,14.23
2019-04-28T10:20:22.842Z,10.45
2019-04-28T10:22:51.127Z,9.93
2019-04-28T10:25:21.193Z,10.40
2019-04-28T10:27:51.088Z,12.78
2019-04-28T10:30:19.335Z,11.93
2019-04-28T10:32:47.543Z,11.33
2019-04-28T10:35:15.915Z,8.75
2019-04-28T10:37:45.669Z,10.95
2019-04-28T10:40:18.956Z,14.35
2019-04-28T10:42:47.184Z,11.03
2019-04-28T10:45:17.027Z,8.53
2019-04-28T10:47:45.584Z,10.53
2019-04-28T10:50:13.800Z,9.60
2019-04-28T10:52:42.005Z,10.58
2019-04-28T10:55:10.249Z,13.45
2019-04-28T10:57:38.456Z,13.78
2019-04-28T11:00:08.569Z,11.40
2019-04-28T11:02:36.784Z,11.40
2019-04-28T11:05:19.530Z,12.05
2019-04-28T11:07:47.765Z,13.45
2019-04-28T11:10:17.259Z,17.12
2019-04-28T11:12:45.488Z,20.17
2019-04-28T11:15:15.400Z,16.45
2019-04-28T11:17:43.604Z,13.20
2019-04-28T11:20:12.682Z,14.03
2019-04-28T11:22:40.912Z,10.53
2019-04-28T11:25:09.127Z,12.90
2019-04-28T11:27:37.347Z,13.22
2019-04-28T11:30:08.486Z,12.47
2019-04-28T11:32:38.472Z,14.15
2019-04-28T11:35:25.271Z,12.30
2019-04-28T11:37:53.564Z,15.68
2019-04-28T11:40:21.814Z,9.50
2019-04-28T11:42:50.015Z,11.03
2019-04-28T11:45:18.296Z,7.95
2019-04-28T11:47:46.571Z,7.28
2019-04-28T11:50:14.775Z,6.33
2019-04-28T11:52:43.002Z,8.18
2019-04-28T11:55:11.280Z,8.90
2019-04-28T11:57:39.523Z,7.87
2019-04-28T12:00:15.309Z,7.17
2019-04-28T12:02:43.528Z,8.20
2019-04-28T12:05:11.729Z,5.00
2019-04-28T12:07:39.946Z,6.65
2019-04-28T12:10:09.803Z,6.62
2019-04-28T12:12:54.966Z,8.73
2019-04-28T12:15:36.740Z,10.68
2019-04-28T12:18:23.013Z,9.80
2019-04-28T12:20:51.220Z,8.35
2019-04-28T12:23:19.457Z,8.13
2019-04-28T12:25:47.669Z,5.53
2019-04-28T12:28:15.879Z,10.88
2019-04-28T12:30:44.515Z,10.20
2019-04-28T12:33:12.709Z,9.70
2019-04-28T12:35:47.673Z,10.98
2019-04-28T12:38:10.907Z,9.68
2019-04-28T12:40:39.123Z,8.23
2019-04-28T12:43:07.413Z,5.65
2019-04-28T12:45:35.740Z,8.55
2019-04-28T12:48:03.962Z,8.05
2019-04-28T12:50:33.818Z,10.60
2019-04-28T12:53:02.041Z,13.70
2019-04-28T12:55:30.248Z,13.75
2019-04-28T12:57:58.450Z,6.55
2019-04-28T13:00:31.024Z,11.90
2019-04-28T13:03:06.675Z,8.25
2019-04-28T13:05:36.546Z,11.00
2019-04-28T13:08:04.765Z,8.68
2019-04-28T13:10:32.980Z,11.60
2019-04-28T13:13:01.193Z,8.50
2019-04-28T13:15:29.404Z,14.23
2019-04-28T13:17:57.624Z,12.88
2019-04-28T13:20:25.845Z,10.50
2019-04-28T13:22:54.065Z,10.43
2019-04-28T13:25:22.352Z,10.32
2019-04-28T13:27:50.567Z,9.28
2019-04-28T13:30:18.818Z,12.20
2019-04-28T13:32:47.030Z,9.75
2019-04-28T13:35:15.618Z,10.35
2019-04-28T13:37:44.396Z,10.82
2019-04-28T13:40:14.257Z,5.80
2019-04-28T13:42:42.470Z,5.97
2019-04-28T13:45:15.092Z,10.63
2019-04-28T13:47:43.305Z,9.85
2019-04-28T13:50:13.295Z,7.12
2019-04-28T13:52:41.495Z,10.35
2019-04-28T13:55:11.447Z,6.33
2019-04-28T13:57:42.316Z,5.03
2019-04-28T14:00:14.200Z,12.65
2019-04-28T14:02:44.044Z,11.80
2019-04-28T14:05:29.844Z,9.18
2019-04-28T14:07:58.157Z,8.20
2019-04-28T14:10:29.337Z,7.55
2019-04-28T14:12:57.561Z,7.78
2019-04-28T14:15:25.764Z,6.25
2019-04-28T14:17:54.059Z,9.15
2019-04-28T14:20:22.378Z,9.45
2019-04-28T14:22:50.600Z,10.85
2019-04-28T14:25:18.836Z,7.08
2019-04-28T14:27:47.084Z,7.40
2019-04-28T14:30:34.780Z,7.67
2019-04-28T14:33:03.268Z,4.67
2019-04-28T14:35:32.339Z,5.37
2019-04-28T14:38:00.554Z,8.65
2019-04-28T14:40:28.963Z,7.83
2019-04-28T14:42:57.175Z,9.30
2019-04-28T14:45:25.457Z,6.92
2019-04-28T14:47:55.325Z,8.68
2019-04-28T14:50:23.572Z,8.70
2019-04-28T14:52:51.792Z,8.85
2019-04-28T14:55:20.072Z,8.90
2019-04-28T14:57:48.284Z,7.35
2019-04-28T15:00:18.175Z,7.25
2019-04-28T15:02:48.013Z,9.48
2019-04-28T15:05:30.281Z,10.85
2019-04-28T15:08:15.231Z,10.95
2019-04-28T15:10:46.533Z,7.85
2019-04-28T15:13:15.344Z,7.05
2019-04-28T15:15:43.798Z,6.92
2019-04-28T15:18:12.068Z,10.08
2019-04-28T15:20:49.331Z,8.50
2019-04-28T15:23:17.576Z,8.55
2019-04-28T15:25:45.817Z,8.38
2019-04-28T15:28:14.032Z,6.58
2019-04-28T15:30:42.273Z,8.58
2019-04-28T15:33:10.656Z,5.83
2019-04-28T15:35:38.859Z,8.90
2019-04-28T15:38:07.066Z,9.88
2019-04-28T15:40:35.280Z,8.60
2019-04-28T15:43:03.887Z,9.10
2019-04-28T15:45:32.139Z,8.13
2019-04-28T15:48:00.492Z,7.08
2019-04-28T15:50:28.704Z,4.97
2019-04-28T15:52:56.922Z,8.20
2019-04-28T15:55:32.686Z,8.13
2019-04-28T15:58:02.541Z,11.20
2019-04-28T16:00:30.788Z,7.50
2019-04-28T16:02:59.057Z,5.40
2019-04-28T16:05:27.256Z,7.35
2019-04-28T16:07:55.493Z,7.55
2019-04-28T16:10:23.726Z,7.87
2019-04-28T16:12:51.945Z,8.55
2019-04-28T16:15:20.161Z,6.42
2019-04-28T16:17:48.433Z,11.10
2019-04-28T16:20:16.672Z,7.28
2019-04-28T16:22:44.883Z,8.20
2019-04-28T16:25:13.101Z,8.20
2019-04-28T16:27:41.311Z,9.48
2019-04-28T16:30:09.528Z,9.10
2019-04-28T16:32:37.743Z,7.55
2019-04-28T16:35:05.972Z,7.45
2019-04-28T16:37:38.846Z,7.90
2019-04-28T16:40:09.169Z,7.20
2019-04-28T16:42:40.439Z,9.33
2019-04-28T16:45:09.181Z,7.58
2019-04-28T16:47:37.415Z,7.20
2019-04-28T16:50:06.589Z,9.60
2019-04-28T16:52:34.805Z,11.20
2019-04-28T16:55:22.981Z,9.63
2019-04-28T16:57:52.851Z,6.90
2019-04-28T17:00:39.183Z,6.97
2019-04-28T17:03:07.532Z,6.22
2019-04-28T17:05:35.741Z,7.05
2019-04-28T17:08:04.055Z,6.37
2019-04-28T17:10:32.246Z,9.75
2019-04-28T17:13:00.444Z,6.40
2019-04-28T17:15:30.247Z,9.83
2019-04-28T17:17:58.646Z,5.78
2019-04-28T17:20:27.145Z,8.20
2019-04-28T17:22:55.365Z,6.50
2019-04-28T17:25:23.610Z,6.10
2019-04-28T17:27:51.798Z,7.30
2019-04-28T17:30:21.496Z,6.62
2019-04-28T17:32:49.704Z,8.47
2019-04-28T17:35:18.296Z,4.60
2019-04-28T17:37:46.527Z,4.83
2019-04-28T17:40:14.723Z,5.22
2019-04-28T17:42:42.961Z,7.60
2019-04-28T17:45:11.172Z,6.05
2019-04-28T17:47:39.448Z,6.60
2019-04-28T17:50:08.562Z,11.12
2019-04-28T17:52:36.752Z,10.93
2019-04-28T17:55:05.916Z,9.25
2019-04-28T17:57:34.500Z,5.62
2019-04-28T18:00:05.432Z,12.00
2019-04-28T18:02:47.618Z,7.80
2019-04-28T18:05:17.463Z,9.78
2019-04-28T18:07:47.263Z,7.17
2019-04-28T18:10:15.490Z,10.32
2019-04-28T18:12:43.876Z,10.00
2019-04-28T18:15:30.030Z,6.60
2019-04-28T18:18:06.094Z,6.75
2019-04-28T18:20:34.353Z,5.30
2019-04-28T18:23:02.564Z,4.25
2019-04-28T18:25:30.809Z,7.58
2019-04-28T18:27:59.018Z,10.72
2019-04-28T18:30:28.884Z,8.20
2019-04-28T18:32:58.721Z,5.05
2019-04-28T18:35:31.334Z,5.42
2019-04-28T18:38:19.321Z,7.37
2019-04-28T18:40:58.153Z,11.68
2019-04-28T18:43:43.276Z,5.60
2019-04-28T18:46:11.497Z,12.68
2019-04-28T18:48:39.708Z,8.43
2019-04-28T18:51:07.904Z,5.10
2019-04-28T18:53:36.116Z,6.47
2019-04-28T18:56:04.310Z,7.20
2019-04-28T18:58:32.526Z,7.17
2019-04-28T19:01:08.590Z,7.30
2019-04-28T19:03:36.803Z,6.45
2019-04-28T19:06:05.021Z,13.60
2019-04-28T19:08:48.908Z,9.95
2019-04-28T19:11:21.455Z,9.03
2019-04-28T19:13:53.957Z,7.65
2019-04-28T19:16:40.444Z,6.62
2019-04-28T19:19:13.240Z,8.30
2019-04-28T19:21:43.097Z,9.23
2019-04-28T19:24:11.292Z,6.17
2019-04-28T19:26:39.507Z,7.47
2019-04-28T19:29:07.886Z,7.58
2019-04-28T19:31:36.103Z,9.55
2019-04-28T19:34:04.325Z,6.95
2019-04-28T19:36:32.617Z,7.35
2019-04-28T19:39:03.400Z,9.48
2019-04-28T19:41:31.005Z,5.28
2019-04-28T19:43:59.255Z,7.97
2019-04-28T19:46:27.463Z,7.75
2019-04-28T19:48:55.900Z,15.40
2019-04-28T19:51:31.545Z,9.13
2019-04-28T19:53:54.197Z,7.78
2019-04-28T19:56:33.016Z,6.20
2019-04-28T19:59:08.822Z,7.22
2019-04-28T20:01:37.166Z,7.20
2019-04-28T20:04:05.566Z,6.53
2019-04-28T20:06:33.879Z,6.80
2019-04-28T20:09:02.116Z,10.53
2019-04-28T20:11:31.999Z,12.15
2019-04-28T20:14:00.442Z,12.30
2019-04-28T20:16:29.052Z,11.05
2019-04-28T20:18:57.412Z,11.88
2019-04-28T20:21:25.655Z,10.35
2019-04-28T20:23:53.859Z,10.55
2019-04-28T20:26:25.146Z,9.80
2019-04-28T20:28:53.420Z,9.13
2019-04-28T20:31:21.708Z,9.20
2019-04-28T20:33:50.336Z,9.63
2019-04-28T20:36:23.407Z,12.68
2019-04-28T20:38:55.943Z,8.55
2019-04-28T20:41:25.787Z,7.40
2019-04-28T20:43:55.088Z,16.32
2019-04-28T20:46:23.624Z,10.40
2019-04-28T20:48:52.194Z,9.08
2019-04-28T20:51:20.696Z,13.60
2019-04-28T20:53:49.271Z,13.22
2019-04-28T20:56:20.800Z,11.45
2019-04-28T20:58:51.171Z,14.70
2019-04-28T21:01:19.534Z,10.65
2019-04-28T21:03:47.870Z,9.98
2019-04-28T21:06:16.525Z,11.50
2019-04-28T21:08:44.790Z,13.35
2019-04-28T21:11:13.450Z,15.23
2019-04-28T21:13:41.697Z,8.15
2019-04-28T21:16:09.920Z,15.25
2019-04-28T21:18:38.141Z,11.48
2019-04-28T21:21:06.691Z,14.87
2019-04-28T21:23:35.271Z,13.35
2019-04-28T21:26:03.650Z,16.27
2019-04-28T21:28:31.884Z,11.28
2019-04-28T21:31:00.155Z,15.30
2019-04-28T21:33:28.366Z,11.73
2019-04-28T21:35:56.587Z,13.75
2019-04-28T21:38:24.801Z,13.38
2019-04-28T21:40:53.356Z,11.22
2019-04-28T21:43:25.917Z,8.95
2019-04-28T21:45:55.828Z,15.95
2019-04-28T21:48:37.674Z,13.55
2019-04-28T21:51:05.924Z,13.05
2019-04-28T21:53:34.125Z,9.18
2019-04-28T21:56:02.353Z,13.70
2019-04-28T21:58:33.469Z,9.93
2019-04-28T22:01:01.061Z,9.08
2019-04-28T22:03:29.308Z,11.00
2019-04-28T22:05:57.608Z,19.12
2019-04-28T22:08:25.835Z,13.72
2019-04-28T22:10:54.053Z,17.20
2019-04-28T22:13:22.597Z,13.95
2019-04-28T22:15:50.806Z,13.08
2019-04-28T22:18:19.060Z,12.93
2019-04-28T22:20:47.283Z,13.32
2019-04-28T22:23:18.838Z,16.80
2019-04-28T22:25:47.135Z,14.45
2019-04-28T22:28:15.349Z,18.55
2019-04-28T22:30:43.556Z,14.63
2019-04-28T22:33:11.777Z,19.12
2019-04-28T22:35:40.000Z,15.45
2019-04-28T22:38:08.219Z,20.85
2019-04-28T22:40:36.453Z,13.75
2019-04-28T22:43:04.656Z,13.53
2019-04-28T22:45:32.884Z,15.60
2019-04-28T22:48:01.082Z,13.65
2019-04-28T22:50:32.575Z,10.68
2019-04-28T22:53:00.795Z,12.98
2019-04-28T22:55:29.502Z,15.68
2019-04-28T22:57:59.352Z,13.55
2019-04-28T23:00:40.843Z,12.35
2019-04-28T23:03:10.769Z,16.62
2019-04-28T23:05:39.135Z,13.72
2019-04-28T23:08:07.352Z,16.45
2019-04-28T23:10:35.568Z,18.98
2019-04-28T23:13:03.816Z,17.10
2019-04-28T23:15:32.029Z,15.00
2019-04-28T23:18:00.328Z,16.87
2019-04-28T23:20:30.180Z,15.83
2019-04-28T23:23:00.031Z,17.92
2019-04-28T23:25:28.257Z,14.03
2019-04-28T23:27:56.494Z,15.40
2019-04-28T23:30:39.175Z,15.83
2019-04-28T23:33:07.381Z,13.25
2019-04-28T23:35:35.602Z,17.20
2019-04-28T23:38:03.869Z,23.70
2019-04-28T23:40:32.088Z,18.27
2019-04-28T23:43:01.940Z,18.17
2019-04-28T23:45:30.171Z,20.55
2019-04-28T23:47:58.416Z,16.95
2019-04-28T23:50:34.060Z,21.48
2019-04-28T23:53:03.913Z,22.80
2019-04-28T23:55:32.157Z,27.48
2019-04-28T23:58:00.370Z,16.85
